Terminal Aerodrome Forecast
Issued by NWS

Home | Current Version | Previous Version | Text Only | Print | Product List | Glossary On
Versions: 1 2 3 4 5 6 7 8 9 10 11 12 13 14 15
000
FTUS44 KCRP 182300
TAFLRD
TAF
KLRD 182340Z 1900/1924 12008KT P6SM SCT060 OVC250
     FM190900 14005KT P6SM BKN035 OVC250
     FM191500 14012KT P6SM BKN035 OVC060
     FM191800 14015G20KT P6SM OVC060=

USA.gov is the U.S. government's official web portal to all federal, state and local government web resources and services.